Baltimore, Maryland
Traffic Map
Current Weather Conditions
Baltimore, Maryland
Few Clouds
Few Clouds
10°
Feels Like: 10°
Wind Chill: 10° Ceiling: Unl
Heat Index: 10° Visibility: 10mi
Dew Point: Wind: 5mph
Humidity: 80% Direction: 260° (W)
Pressure: 30.25in Gusts: 0mph
Raw Report DataKBWI 230754Z 26004KT 10SM FEW250 10/07 A3025 RMK AO2 SLP244 T01000067 $
Traffic Incident Summary
Active as of:
Severity:
Category:
InformationThere was an issue retrieving the traffic information for this location. Please try a different location or try again shortly.
Advertisements
Track Severe Weather on mobile